Time;durP1;ratioP1;P1;durP2;ratioP2;P2;SDS_P1;SDS_P2;PMS_P1;PMS_P2;Temp;Humidity;BMP_temperature;BMP_pressure;BME280_temperature;BME280_humidity;BME280_pressure;Samples;Min_cycle;Max_cycle;Signal;HPM_P1;HPM_P2
2022/10/12 00:01:17;;;;;;;36.30;18.70;;;;;;;6.95;71.64;101070.74;103530;1298;97813;-81
2022/10/12 00:03:45;;;;;;;39.40;19.60;;;;;;;6.93;71.57;101066.44;103310;1290;139678;-81
2022/10/12 00:06:17;;;;;;;32.40;18.20;;;;;;;6.92;71.72;101068.69;103367;1293;108631;-81
2022/10/12 00:08:47;;;;;;;34.60;18.20;;;;;;;6.92;71.68;101069.55;103411;1296;107804;-81
2022/10/12 00:11:19;;;;;;;34.50;18.30;;;;;;;6.92;71.98;101072.49;103283;1297;139492;-81
2022/10/12 00:13:49;;;;;;;33.90;19.00;;;;;;;6.92;71.83;101067.14;103374;1285;99634;-80
2022/10/12 00:16:20;;;;;;;37.10;18.60;;;;;;;6.89;71.87;101067.66;103394;1302;138541;-81
2022/10/12 00:18:51;;;;;;;37.50;19.00;;;;;;;6.87;71.97;101068.73;103409;1297;106875;-81
2022/10/12 00:21:21;;;;;;;36.30;19.00;;;;;;;6.85;72.00;101069.41;103386;1302;108621;-79
2022/10/12 00:23:51;;;;;;;36.90;19.20;;;;;;;6.84;72.10;101070.64;103302;1300;138212;-81
2022/10/12 00:26:21;;;;;;;29.90;18.90;;;;;;;6.83;72.03;101077.04;103457;1300;97936;-80
2022/10/12 00:28:55;;;;;;;38.80;19.50;;;;;;;6.79;72.06;101069.94;103330;1298;138310;-81
2022/10/12 00:31:25;;;;;;;38.00;18.60;;;;;;;6.78;72.35;101068.39;103712;1298;107855;-81
2022/10/12 00:33:54;;;;;;;37.40;19.30;;;;;;;6.77;72.14;101071.50;103262;1299;138600;-80
2022/10/12 00:36:26;;;;;;;38.00;19.90;;;;;;;6.75;72.27;101072.03;103396;1300;97810;-81
2022/10/12 00:38:55;;;;;;;41.40;20.10;;;;;;;6.73;72.37;101075.67;103410;1290;97833;-81
2022/10/12 00:41:26;;;;;;;37.10;18.90;;;;;;;6.71;72.40;101073.26;103344;1284;138399;-81
2022/10/12 00:43:55;;;;;;;35.80;18.60;;;;;;;6.70;72.48;101073.27;103368;1302;108053;-80
2022/10/12 00:46:32;;;;;;;43.20;19.70;;;;;;;6.69;72.43;101070.68;103302;1298;139007;-80
2022/10/12 00:49:09;;;;;;;38.20;19.70;;;;;;;6.66;72.59;101073.63;103387;1290;97933;-81
2022/10/12 00:51:37;;;;;;;;;;;;;;;6.63;72.51;101071.38;103669;1301;138728;-80
2022/10/12 00:54:13;;;;;;;38.10;19.00;;;;;;;6.60;72.71;101072.42;103404;1295;111453;-81
2022/10/12 00:56:46;;;;;;;38.10;19.90;;;;;;;6.58;72.64;101075.54;103499;1295;107877;-81
2022/10/12 00:59:22;;;;;;;38.80;19.60;;;;;;;6.56;72.92;101076.23;103347;1298;139883;-81
2022/10/12 01:01:51;;;;;;;41.40;19.60;;;;;;;6.54;73.02;101077.97;103445;1300;97821;-81
2022/10/12 01:04:20;;;;;;;35.90;18.50;;;;;;;6.53;73.02;101084.02;103391;1299;138541;-81
2022/10/12 01:06:50;;;;;;;35.00;18.30;;;;;;;6.51;73.10;101086.11;103603;1298;110134;-81
2022/10/12 01:09:20;;;;;;;41.90;19.10;;;;;;;6.50;73.11;101087.50;103559;1299;107509;-81
2022/10/12 01:11:49;;;;;;;36.80;20.00;;;;;;;6.49;73.30;101088.19;103383;1295;138532;-79
2022/10/12 01:14:19;;;;;;;36.10;19.40;;;;;;;6.49;73.22;101091.48;103478;1286;97875;-81
2022/10/12 01:16:52;;;;;;;39.30;18.60;;;;;;;6.48;73.24;101091.30;103347;1300;138555;-81
2022/10/12 01:19:40;;;;;;;34.90;18.80;;;;;;;6.47;73.31;101090.60;103410;1296;111226;-81
2022/10/12 01:22:12;;;;;;;40.80;19.10;;;;;;;6.45;73.26;101090.94;103378;1299;138804;-81
2022/10/12 01:24:51;;;;;;;38.80;19.70;;;;;;;6.43;73.48;101090.60;103476;1284;106969;-81
2022/10/12 01:27:33;;;;;;;39.10;19.00;;;;;;;6.42;73.41;101093.36;103444;1299;96191;-81
2022/10/12 01:30:11;;;;;;;37.50;18.60;;;;;;;6.40;73.57;101095.96;103988;1290;97831;-81
2022/10/12 01:33:02;;;;;;;35.00;17.90;;;;;;;6.38;73.74;101098.05;103399;1295;112757;-81
2022/10/12 01:35:37;;;;;;;40.40;19.40;;;;;;;6.36;73.58;101098.23;103329;1290;138475;-80
2022/10/12 01:38:16;;;;;;;39.40;18.30;;;;;;;6.34;73.79;101096.85;103392;1301;107961;-80
2022/10/12 01:40:54;;;;;;;38.90;19.20;;;;;;;6.33;73.77;101097.54;103267;1303;138543;-80
2022/10/12 01:43:32;;;;;;;34.60;18.00;;;;;;;6.32;73.88;101100.13;103470;1291;97710;-80
2022/10/12 01:46:07;;;;;;;34.70;18.50;;;;;;;6.30;73.88;101099.80;103321;1301;138488;-80
2022/10/12 01:48:36;;;;;;;34.70;19.10;;;;;;;6.29;73.89;101096.17;103520;1301;106486;-80
2022/10/12 01:51:05;;;;;;;39.80;19.50;;;;;;;6.28;74.18;101099.45;103427;1286;108043;-80
2022/10/12 01:53:41;;;;;;;34.10;19.30;;;;;;;6.27;74.03;101100.29;103369;1296;138397;-80
2022/10/12 01:56:17;;;;;;;37.90;18.90;;;;;;;6.26;74.00;101099.60;103456;1294;97833;-79
2022/10/12 01:58:57;;;;;;;36.00;18.40;;;;;;;6.26;74.19;101104.09;103367;1291;138416;-81
2022/10/12 02:01:34;;;;;;;34.10;18.90;;;;;;;6.25;74.34;101110.14;103423;1299;108482;-81
2022/10/12 02:04:10;;;;;;;35.70;18.60;;;;;;;6.24;74.32;101105.48;103363;1296;139674;-81
2022/10/12 02:06:44;;;;;;;35.60;18.20;;;;;;;6.23;74.33;101106.52;103457;1295;97837;-81
2022/10/12 02:09:21;;;;;;;32.80;17.80;;;;;;;6.22;74.39;101108.94;103459;1299;97823;-81
2022/10/12 02:11:53;;;;;;;39.10;19.40;;;;;;;6.21;74.33;101111.88;103402;1293;138374;-80
2022/10/12 02:14:26;;;;;;;38.70;18.30;;;;;;;6.19;74.40;101112.05;103425;1290;107828;-81
2022/10/12 02:16:58;;;;;;;34.30;17.70;;;;;;;6.16;74.38;101111.19;103312;1301;138488;-81
2022/10/12 02:19:30;;;;;;;29.30;18.20;;;;;;;6.17;74.63;101111.71;104029;1291;98000;-81
2022/10/12 02:22:03;;;;;;;37.60;18.40;;;;;;;6.18;74.67;101114.65;103372;1287;138657;-81
2022/10/12 02:24:36;;;;;;;40.00;19.00;;;;;;;6.17;74.66;101113.27;103516;1285;111206;-80
2022/10/12 02:27:06;;;;;;;39.30;18.60;;;;;;;6.15;74.63;101111.71;103468;1293;108732;-81
2022/10/12 02:29:39;;;;;;;35.00;18.80;;;;;;;6.13;74.72;101108.44;103288;1293;138429;-81
2022/10/12 02:32:16;;;;;;;38.60;18.50;;;;;;;6.12;74.61;101112.76;103989;1290;97987;-82
2022/10/12 02:34:49;;;;;;;36.30;19.40;;;;;;;6.12;74.83;101111.03;103346;1293;139510;-81
2022/10/12 02:37:27;;;;;;;35.00;18.90;;;;;;;6.10;74.83;101112.55;103472;1295;110802;-81
2022/10/12 02:40:01;;;;;;;34.30;18.20;;;;;;;6.08;74.81;101111.52;103393;1291;138778;-81
2022/10/12 02:42:34;;;;;;;31.60;18.10;;;;;;;6.08;75.05;101112.90;103431;1291;108564;-81
2022/10/12 02:45:23;;;;;;;39.70;19.40;;;;;;;6.09;75.12;101119.29;103430;1292;97866;-80
2022/10/12 02:47:56;;;;;;;39.20;20.20;;;;;;;6.07;74.96;101117.39;103329;1293;138125;-81
2022/10/12 02:50:26;;;;;;;39.90;19.30;;;;;;;6.05;74.99;101116.70;103489;1293;111929;-81
2022/10/12 02:52:56;;;;;;;38.70;19.00;;;;;;;6.03;75.00;101116.19;103342;1294;139606;-81
2022/10/12 02:55:25;;;;;;;39.00;19.20;;;;;;;6.01;75.06;101119.64;103394;1294;107237;-81
2022/10/12 02:57:54;;;;;;;39.10;18.80;;;;;;;5.99;74.92;101120.33;103326;1290;142725;-81
2022/10/12 03:00:23;;;;;;;34.20;18.30;;;;;;;5.97;74.99;101120.16;103401;1294;97772;-81
2022/10/12 03:02:52;;;;;;;36.20;18.10;;;;;;;5.95;75.13;101118.45;103421;1293;111446;-81
2022/10/12 03:05:21;;;;;;;38.30;19.30;;;;;;;5.93;75.36;101115.85;103309;1291;137332;-81
2022/10/12 03:07:51;;;;;;;34.40;18.50;;;;;;;5.93;75.38;101115.16;103597;1290;108771;-80
2022/10/12 03:10:19;;;;;;;38.20;19.40;;;;;;;5.93;75.33;101115.33;103241;1293;138571;-81
2022/10/12 03:12:48;;;;;;;34.30;18.90;;;;;;;5.92;75.28;101114.80;103413;1287;97905;-81
2022/10/12 03:15:18;;;;;;;31.40;17.90;;;;;;;5.91;75.40;101107.38;103303;1295;111683;-80
2022/10/12 03:17:47;;;;;;;36.10;18.40;;;;;;;5.92;75.42;101106.67;103332;1294;138748;-80
2022/10/12 03:20:16;;;;;;;29.40;17.50;;;;;;;5.91;75.39;101108.41;103474;1294;105579;-81
2022/10/12 03:22:45;;;;;;;33.20;18.50;;;;;;;5.90;75.39;101103.21;103281;1294;138592;-81
2022/10/12 03:25:14;;;;;;;36.20;18.60;;;;;;;5.88;75.39;101104.92;103422;1294;99048;-81
2022/10/12 03:27:44;;;;;;;31.20;18.30;;;;;;;5.86;75.33;101105.27;103347;1296;138581;-80
2022/10/12 03:30:14;;;;;;;36.40;19.30;;;;;;;5.84;75.37;101109.41;103436;1299;107561;-80
2022/10/12 03:32:42;;;;;;;33.70;18.00;;;;;;;5.83;75.37;101113.21;103662;1292;107310;-80
2022/10/12 03:35:11;;;;;;;39.60;19.40;;;;;;;5.81;75.41;101117.02;103297;1285;138505;-80
2022/10/12 03:37:40;;;;;;;36.40;19.90;;;;;;;5.79;75.50;101115.64;103410;1300;97838;-81
2022/10/12 03:40:11;;;;;;;35.60;19.30;;;;;;;5.78;75.57;101119.09;103299;1300;138743;-81
2022/10/12 03:42:40;;;;;;;35.00;19.40;;;;;;;5.76;75.75;101115.80;103565;1294;107227;-81
2022/10/12 03:45:11;;;;;;;32.60;19.30;;;;;;;5.74;75.55;101117.85;103369;1301;107612;-80
2022/10/12 03:47:40;;;;;;;34.10;19.30;;;;;;;5.73;75.74;101119.74;103358;1294;140414;-80
2022/10/12 03:50:10;;;;;;;37.50;18.80;;;;;;;5.72;75.75;101119.91;103436;1293;97927;-80
2022/10/12 03:52:39;;;;;;;33.60;19.20;;;;;;;5.71;75.75;101119.05;103284;1292;139143;-80
2022/10/12 03:55:09;;;;;;;32.70;17.90;;;;;;;5.70;75.58;101115.27;103410;1297;106720;-80
2022/10/12 03:57:38;;;;;;;33.60;18.80;;;;;;;5.70;75.93;101118.70;103280;1291;138741;-80
2022/10/12 04:00:11;;;;;;;37.80;20.20;;;;;;;5.69;75.95;101119.23;103419;1290;97815;-81
2022/10/12 04:02:41;;;;;;;44.00;21.60;;;;;;;5.68;75.78;101122.51;103612;1292;97905;-81
2022/10/12 04:05:10;;;;;;;39.10;19.70;;;;;;;5.66;75.85;101119.05;103335;1298;138391;-81
2022/10/12 04:07:39;;;;;;;33.00;18.80;;;;;;;5.64;75.82;101120.77;103430;1292;108195;-81
2022/10/12 04:10:10;;;;;;;40.30;19.70;;;;;;;5.64;75.91;101118.20;103362;1292;138657;-80
2022/10/12 04:12:39;;;;;;;36.40;19.10;;;;;;;5.62;75.74;101117.50;103435;1300;97822;-81
2022/10/12 04:15:10;;;;;;;31.40;18.60;;;;;;;5.60;76.06;101117.84;103452;1300;97767;-80
2022/10/12 04:17:39;;;;;;;34.00;19.30;;;;;;;5.59;76.18;101115.42;103534;1294;138467;-80
2022/10/12 04:20:11;;;;;;;36.20;18.90;;;;;;;5.58;76.16;101118.02;103587;1293;107707;-80
2022/10/12 04:22:41;;;;;;;36.70;19.80;;;;;;;5.58;76.19;101119.58;103344;1307;139552;-80
2022/10/12 04:25:11;;;;;;;41.30;19.90;;;;;;;5.57;76.37;101120.79;103462;1293;97952;-80
2022/10/12 04:27:40;;;;;;;36.00;19.00;;;;;;;5.58;76.27;101119.58;103493;1298;138813;-81
2022/10/12 04:30:12;;;;;;;36.10;19.50;;;;;;;5.57;76.28;101117.84;103502;1295;111815;-79
2022/10/12 04:32:40;;;;;;;34.50;18.90;;;;;;;5.56;76.35;101120.06;103619;1296;107856;-79
2022/10/12 04:35:10;;;;;;;33.70;18.90;;;;;;;5.55;76.42;101122.98;103374;1291;140280;-79
2022/10/12 04:37:38;;;;;;;35.20;19.10;;;;;;;5.55;76.42;101120.91;103508;1283;97630;-79
2022/10/12 04:40:10;;;;;;;40.60;20.20;;;;;;;5.56;76.27;101123.86;103413;1291;141365;-80
2022/10/12 04:42:38;;;;;;;41.90;18.90;;;;;;;5.56;76.46;101125.41;103821;1291;111203;-79
2022/10/12 04:45:09;;;;;;;43.90;19.70;;;;;;;5.56;76.51;101124.20;103515;1284;107641;-80
2022/10/12 04:47:38;;;;;;;40.10;20.40;;;;;;;5.56;76.38;101121.27;103515;1291;138620;-80
2022/10/12 04:50:08;;;;;;;41.10;19.10;;;;;;;5.56;76.46;101126.44;103513;1293;97837;-80
2022/10/12 04:52:37;;;;;;;35.40;19.80;;;;;;;5.55;76.50;101127.48;103726;1283;137202;-80
2022/10/12 04:55:08;;;;;;;33.10;19.40;;;;;;;5.55;76.44;101126.27;103508;1291;109958;-81
2022/10/12 04:57:37;;;;;;;36.90;19.60;;;;;;;5.54;76.47;101128.16;103573;1294;138685;-79
2022/10/12 05:00:09;;;;;;;38.10;19.90;;;;;;;5.55;76.51;101126.27;103530;1291;107846;-82
2022/10/12 05:02:37;;;;;;;41.10;19.50;;;;;;;5.55;76.57;101138.16;103892;1288;97829;-78
2022/10/12 05:05:07;;;;;;;34.10;19.60;;;;;;;5.55;76.50;101139.55;103416;1292;138448;-82
2022/10/12 05:07:36;;;;;;;33.40;20.90;;;;;;;5.56;76.68;101145.08;103575;1291;112109;-80
2022/10/12 05:10:07;;;;;;;41.70;21.20;;;;;;;5.57;76.44;101145.43;103478;1300;138887;-79
2022/10/12 05:12:36;;;;;;;38.70;20.70;;;;;;;5.58;76.43;101147.69;103657;1291;108671;-81
2022/10/12 05:15:07;;;;;;;38.20;21.10;;;;;;;5.61;76.44;101148.56;103422;1293;97861;-79
2022/10/12 05:17:36;;;;;;;38.30;21.10;;;;;;;5.64;76.48;101149.08;103917;1293;138574;-80
2022/10/12 05:20:08;;;;;;;35.70;20.60;;;;;;;5.70;76.38;101152.52;103436;1300;110936;-80
2022/10/12 05:22:37;;;;;;;37.70;20.10;;;;;;;5.77;76.29;101155.66;103570;1297;138573;-80
2022/10/12 05:25:08;;;;;;;43.30;20.80;;;;;;;5.83;76.46;101157.91;103508;1293;108289;-80
2022/10/12 05:27:37;;;;;;;43.00;21.50;;;;;;;5.91;76.19;101157.61;103926;1293;137611;-80
2022/10/12 05:30:08;;;;;;;39.70;20.30;;;;;;;6.00;76.27;101159.87;103478;1294;97917;-81
2022/10/12 05:32:37;;;;;;;39.70;19.90;;;;;;;6.12;76.06;101163.86;103730;1294;110089;-83
2022/10/12 05:35:08;;;;;;;33.90;19.90;;;;;;;6.24;75.93;101162.65;103252;1286;138494;-81
2022/10/12 05:37:37;;;;;;;43.40;20.00;;;;;;;6.37;75.48;101164.89;103549;1285;108855;-81
2022/10/12 05:40:07;;;;;;;33.10;18.50;;;;;;;6.51;75.44;101167.99;103269;1290;138627;-81
2022/10/12 05:42:36;;;;;;;37.80;18.10;;;;;;;6.66;75.34;101172.46;103379;1287;99055;-80
2022/10/12 05:45:07;;;;;;;33.00;17.90;;;;;;;6.80;74.83;101170.55;103435;1296;110463;-81
2022/10/12 05:47:36;;;;;;;35.90;18.00;;;;;;;6.95;74.46;101171.54;103208;1290;138555;-82
2022/10/12 05:50:07;;;;;;;39.00;17.80;;;;;;;7.11;74.26;101173.91;103276;1287;108062;-81
2022/10/12 05:52:36;;;;;;;31.30;17.50;;;;;;;7.28;74.03;101175.59;103478;1284;138513;-81
2022/10/12 05:55:07;;;;;;;30.10;16.80;;;;;;;7.45;73.71;101173.45;103370;1298;98197;-81
2022/10/12 05:57:36;;;;;;;42.60;17.20;;;;;;;7.65;73.37;101170.74;103340;1287;138510;-80
2022/10/12 06:00:08;;;;;;;39.70;16.90;;;;;;;7.85;73.08;101171.85;103357;1293;109516;-81
2022/10/12 06:02:40;;;;;;;35.80;17.00;;;;;;;8.08;72.75;101172.56;103384;1287;108622;-81
2022/10/12 06:05:09;;;;;;;34.00;16.70;;;;;;;8.29;72.09;101172.74;103191;1301;138552;-81
2022/10/12 06:07:38;;;;;;;33.10;15.50;;;;;;;8.48;71.36;101167.42;103218;1300;138953;-82
2022/10/12 06:10:08;;;;;;;28.40;15.80;;;;;;;8.67;70.96;101169.14;103422;1291;112314;-82
2022/10/12 06:12:37;;;;;;;29.10;16.00;;;;;;;8.91;70.70;101167.52;104418;1294;108903;-82
2022/10/12 06:15:09;;;;;;;31.50;15.60;;;;;;;9.22;70.22;101172.73;103196;1291;140299;-82
2022/10/12 06:17:38;;;;;;;32.10;15.20;;;;;;;9.60;69.56;101174.32;103723;1294;97828;-82
2022/10/12 06:20:09;;;;;;;28.70;14.90;;;;;;;10.02;68.36;101171.11;103263;1293;138570;-82
2022/10/12 06:22:38;;;;;;;34.10;15.50;;;;;;;10.52;67.39;101178.88;104589;1302;112758;-82
2022/10/12 06:25:08;;;;;;;28.50;14.80;;;;;;;11.15;66.16;101177.17;103332;1285;107925;-82
2022/10/12 06:27:37;;;;;;;30.40;14.60;;;;;;;11.76;65.08;101172.78;103187;1293;138757;-83
2022/10/12 06:30:07;;;;;;;26.90;14.40;;;;;;;12.23;64.04;101171.87;103297;1292;99687;-83
2022/10/12 06:32:36;;;;;;;30.00;15.00;;;;;;;12.58;63.68;101174.14;103395;1291;139196;-83
2022/10/12 06:35:09;;;;;;;29.40;15.90;;;;;;;12.98;63.17;101173.07;103392;1287;112226;-83
2022/10/12 06:37:38;;;;;;;30.60;15.20;;;;;;;13.49;62.22;101175.67;104798;1291;138887;-83
2022/10/12 06:40:18;;;;;;;27.40;15.00;;;;;;;14.26;60.81;101170.31;104885;1294;107678;-81
2022/10/12 06:42:48;;;;;;;22.90;13.80;;;;;;;15.08;59.56;101170.83;104938;1291;95914;-83
2022/10/12 06:45:17;;;;;;;26.40;14.00;;;;;;;15.93;58.45;101165.72;104894;1291;138230;-84
2022/10/12 06:47:47;;;;;;;26.40;14.80;;;;;;;16.51;56.98;101162.44;104925;1299;111145;-84
2022/10/12 06:50:16;;;;;;;29.60;14.20;;;;;;;17.00;56.04;101159.13;104813;1292;139466;-84
2022/10/12 06:52:46;;;;;;;28.90;14.20;;;;;;;17.50;55.17;101163.73;104890;1294;107306;-84
2022/10/12 06:55:15;;;;;;;26.30;14.20;;;;;;;17.91;54.14;101164.97;104924;1286;96011;-82
2022/10/12 06:57:50;;;;;;;28.30;13.80;;;;;;;18.10;53.48;101163.51;104927;1297;96086;-81
2022/10/12 07:00:19;;;;;;;29.30;14.20;;;;;;;18.22;52.82;101164.19;103256;1291;111698;-83
2022/10/12 07:02:50;;;;;;;27.40;13.40;;;;;;;18.47;52.70;101167.17;103195;1290;139745;-83
2022/10/12 07:05:20;;;;;;;24.20;13.60;;;;;;;18.88;52.10;101165.25;103267;1287;107902;-83
2022/10/12 07:07:48;;;;;;;26.50;13.00;;;;;;;19.27;51.80;101164.92;103291;1301;138275;-83
2022/10/12 07:10:18;;;;;;;24.80;13.30;;;;;;;19.71;51.00;101157.60;103370;1300;97731;-83
2022/10/12 07:12:47;;;;;;;25.20;12.90;;;;;;;19.97;49.83;101160.91;103307;1293;111273;-82
2022/10/12 07:15:16;;;;;;;25.30;13.10;;;;;;;20.13;49.29;101159.12;103145;1293;138344;-84
2022/10/12 07:17:45;;;;;;;31.90;12.70;;;;;;;20.47;48.58;101161.23;103275;1293;108042;-84
2022/10/12 07:20:14;;;;;;;21.10;13.20;;;;;;;20.80;47.98;101163.50;103189;1293;139717;-84
2022/10/12 07:22:43;;;;;;;22.00;12.30;;;;;;;21.12;47.18;101166.12;104995;1294;95788;-85
2022/10/12 07:25:12;;;;;;;25.10;12.80;;;;;;;21.52;46.78;101162.41;103607;1291;111068;-84
2022/10/12 07:27:41;;;;;;;26.40;12.10;;;;;;;21.78;45.93;101158.07;103194;1293;138256;-85
2022/10/12 07:30:12;;;;;;;23.90;12.30;;;;;;;22.12;46.07;101154.45;103203;1293;108888;-85
2022/10/12 07:32:43;;;;;;;22.50;12.40;;;;;;;22.52;44.91;101158.73;103087;1286;140120;-85
2022/10/12 07:35:12;;;;;;;23.90;12.20;;;;;;;22.78;44.52;101157.80;103166;1300;98393;-85
2022/10/12 07:37:40;;;;;;;25.00;12.20;;;;;;;23.07;44.04;101158.17;103231;1292;138179;-85
2022/10/12 07:40:10;;;;;;;18.30;11.30;;;;;;;23.35;43.39;101159.88;103254;1290;107625;-84
2022/10/12 07:42:39;;;;;;;23.40;11.90;;;;;;;23.58;42.91;101151.30;103344;1290;107105;-91
2022/10/12 07:45:28;;;;;;;26.40;12.10;;;;;;;23.75;42.30;101153.63;103271;1291;138225;-83
2022/10/12 07:47:57;;;;;;;23.40;12.70;;;;;;;23.89;42.01;101154.42;103359;1287;97714;-83
2022/10/12 07:50:25;;;;;;;21.70;11.60;;;;;;;24.03;41.75;101149.09;103220;1300;137930;-84
2022/10/12 07:52:54;;;;;;;20.40;10.90;;;;;;;24.25;40.84;101148.33;103401;1285;108189;-84
2022/10/12 07:55:23;;;;;;;19.90;11.40;;;;;;;24.40;40.38;101150.98;103347;1287;108004;-84
2022/10/12 07:57:52;;;;;;;21.80;11.90;;;;;;;24.66;40.29;101149.00;103394;1294;97856;-84
2022/10/12 08:00:21;;;;;;;19.00;10.80;;;;;;;25.04;39.59;101151.36;103382;1293;97668;-84
2022/10/12 08:02:49;;;;;;;19.60;11.10;;;;;;;25.22;38.80;101154.17;103198;1291;137955;-83
2022/10/12 08:05:20;;;;;;;19.80;10.90;;;;;;;25.47;38.55;101157.05;103343;1287;107915;-83
2022/10/12 08:07:49;;;;;;;18.90;10.40;;;;;;;25.77;38.52;101157.60;103218;1294;140054;-83
2022/10/12 08:10:19;;;;;;;18.10;9.80;;;;;;;26.12;38.07;101153.72;103423;1292;97816;-84
2022/10/12 08:12:47;;;;;;;20.60;10.30;;;;;;;26.31;37.07;101150.11;103459;1301;97838;-84
2022/10/12 08:15:20;;;;;;;21.80;10.80;;;;;;;26.39;36.65;101150.89;103301;1285;139448;-84
2022/10/12 08:17:49;;;;;;;18.80;10.20;;;;;;;26.45;36.13;101154.17;103397;1293;106875;-82
2022/10/12 08:20:18;;;;;;;23.10;9.80;;;;;;;26.53;36.15;101154.41;103240;1293;139820;-82
2022/10/12 08:22:47;;;;;;;17.00;9.00;;;;;;;26.76;36.17;101157.55;103336;1290;97814;-83
2022/10/12 08:25:16;;;;;;;19.70;10.20;;;;;;;26.86;35.70;101154.73;103356;1284;97762;-79
2022/10/12 08:27:45;;;;;;;19.50;9.70;;;;;;;27.02;36.13;101151.38;103244;1290;137810;-79
2022/10/12 08:30:14;;;;;;;17.70;9.90;;;;;;;27.34;35.87;101149.86;103251;1287;109688;-80
2022/10/12 08:32:43;;;;;;;19.00;9.60;;;;;;;27.45;35.28;101149.59;103260;1286;138020;-82
2022/10/12 08:35:11;;;;;;;18.30;9.30;;;;;;;27.41;34.69;101147.96;103306;1294;97917;-82
2022/10/12 08:37:40;;;;;;;16.30;9.10;;;;;;;27.29;34.39;101149.25;103278;1291;138023;-85
2022/10/12 08:40:16;;;;;;;19.90;8.50;;;;;;;27.40;34.51;101149.52;103371;1284;112565;-82
2022/10/12 08:42:54;;;;;;;15.20;8.30;;;;;;;27.47;34.13;101146.35;103329;1292;107587;-85
2022/10/12 08:45:36;;;;;;;17.60;8.10;;;;;;;27.48;34.08;101147.69;103249;1293;138127;-85
2022/10/12 08:48:11;;;;;;;19.20;7.90;;;;;;;27.38;33.43;101145.36;103394;1293;97804;-85
2022/10/12 08:50:46;;;;;;;14.30;7.10;;;;;;;27.34;33.97;101148.91;103256;1287;138489;-84
2022/10/12 08:53:22;;;;;;;16.20;7.10;;;;;;;27.37;33.48;101154.89;103377;1301;110730;-84
2022/10/12 08:55:51;;;;;;;14.70;7.30;;;;;;;27.14;33.04;101155.67;103488;1293;138312;-84
2022/10/12 08:58:23;;;;;;;19.20;7.10;;;;;;;27.04;33.42;101158.55;103363;1301;107157;-84
2022/10/12 09:00:54;;;;;;;12.30;7.10;;;;;;;26.90;32.74;101160.11;103317;1306;98254;-85
2022/10/12 09:03:42;;;;;;;13.80;7.30;;;;;;;26.43;32.88;101158.23;103298;1301;139633;-74
2022/10/12 09:06:18;;;;;;;15.80;7.30;;;;;;;26.25;33.27;101155.27;103378;1299;111638;-71
2022/10/12 09:09:00;;;;;;;14.30;7.10;;;;;;;26.18;33.72;101155.52;103169;1294;139674;-72
2022/10/12 09:11:49;;;;;;;15.80;7.10;;;;;;;26.33;33.95;101153.93;103328;1290;108166;-72
2022/10/12 09:14:22;;;;;;;13.60;6.80;;;;;;;26.29;33.71;101150.80;103235;1291;137866;-72
2022/10/12 09:16:54;;;;;;;17.00;7.40;;;;;;;26.21;33.75;101146.00;104912;1299;97513;-72
2022/10/12 09:19:32;;;;;;;15.30;7.00;;;;;;;26.09;33.86;101148.02;104906;1292;111501;-72
2022/10/12 09:22:03;;;;;;;17.10;7.10;;;;;;;25.86;33.92;101148.02;103895;1287;109373;-72
2022/10/12 09:24:38;;;;;;;14.30;6.60;;;;;;;25.84;34.38;101147.22;103326;1294;107285;-71
2022/10/12 09:27:14;;;;;;;13.30;6.90;;;;;;;25.87;33.94;101143.40;103274;1291;138192;-71
2022/10/12 09:29:48;;;;;;;12.50;5.70;;;;;;;25.90;34.15;101144.61;103372;1294;97913;-70
2022/10/12 09:32:42;;;;;;;12.50;5.70;;;;;;;25.92;33.83;101142.20;103329;1291;137768;-71
2022/10/12 09:35:13;;;;;;;17.70;6.40;;;;;;;25.90;34.18;101144.84;103409;1292;107836;-71
2022/10/12 09:37:45;;;;;;;13.10;5.60;;;;;;;26.00;34.04;101137.06;103279;1285;138013;-71
2022/10/12 09:40:20;;;;;;;12.80;5.40;;;;;;;26.20;34.47;101138.20;103350;1293;98034;-71
2022/10/12 09:42:50;;;;;;;11.50;5.80;;;;;;;26.40;33.93;101146.19;103423;1286;97933;-71
2022/10/12 09:45:21;;;;;;;14.50;6.10;;;;;;;26.41;33.74;101142.85;103237;1293;137689;-75
2022/10/12 09:48:12;;;;;;;11.40;4.30;;;;;;;26.42;33.84;101142.44;103384;1284;107470;-73
2022/10/12 09:50:45;;;;;;;14.10;5.40;;;;;;;26.28;33.10;101141.86;103286;1287;137980;-72
2022/10/12 09:53:20;;;;;;;10.10;4.70;;;;;;;26.03;33.03;101143.20;103435;1291;97842;-74
2022/10/12 09:55:55;;;;;;;13.00;4.20;;;;;;;25.83;33.40;101146.12;103919;1293;138666;-74
2022/10/12 09:58:26;;;;;;;11.90;4.30;;;;;;;25.64;33.33;101147.06;103498;1297;111276;-75
2022/10/12 10:01:29;;;;;;;11.90;4.30;;;;;;;25.60;33.20;101147.63;103431;1294;107247;-74
2022/10/12 10:04:12;;;;;;;10.50;4.10;;;;;;;25.38;33.08;101150.14;103399;1299;106088;-74
2022/10/12 10:06:43;;;;;;;14.00;4.50;;;;;;;25.17;33.23;101151.59;103422;1292;97820;-74
2022/10/12 10:09:31;;;;;;;12.00;3.80;;;;;;;25.05;32.87;101149.32;103303;1301;138543;-74
2022/10/12 10:12:12;;;;;;;;;;;;;;;24.71;33.03;101143.41;103344;1301;110850;-73
2022/10/12 10:14:43;;;;;;;13.80;4.20;;;;;;;24.59;34.04;101147.02;103299;1293;124338;-74
2022/10/12 10:17:16;;;;;;;9.30;3.80;;;;;;;24.66;33.82;101142.17;104822;1294;107848;-74
2022/10/12 10:19:50;;;;;;;7.50;3.60;;;;;;;24.54;33.32;101140.85;104317;1294;138493;-74
2022/10/12 10:22:20;;;;;;;8.40;4.00;;;;;;;24.50;33.88;101149.67;103292;1287;99424;-75
2022/10/12 10:24:52;;;;;;;10.20;4.10;;;;;;;24.61;34.22;101146.19;103281;1290;111316;-74
2022/10/12 10:27:28;;;;;;;;;;;;;;;24.61;33.80;101144.18;103237;1293;137895;-73
2022/10/12 10:30:22;;;;;;;12.90;4.50;;;;;;;24.54;33.71;101144.21;103265;1293;108133;-73
2022/10/12 10:33:16;;;;;;;14.50;5.60;;;;;;;24.31;33.54;101139.17;104700;1286;139159;-72
2022/10/12 10:35:58;;;;;;;8.50;3.50;;;;;;;24.10;33.64;101136.48;104917;1292;96025;-73
2022/10/12 10:38:29;;;;;;;11.60;4.00;;;;;;;23.85;33.82;101137.31;104722;1294;138234;-73
2022/10/12 10:41:01;;;;;;;12.70;3.60;;;;;;;23.66;34.09;101129.25;103322;1290;107335;-73
2022/10/12 10:43:31;;;;;;;11.30;3.50;;;;;;;23.55;34.48;101127.77;103253;1291;138312;-75
2022/10/12 10:46:02;;;;;;;9.30;3.90;;;;;;;23.48;34.58;101124.67;103340;1291;97818;-75
2022/10/12 10:48:40;;;;;;;11.10;3.80;;;;;;;23.30;34.72;101119.76;103270;1285;98437;-75
2022/10/12 10:51:09;;;;;;;9.10;3.60;;;;;;;23.18;35.16;101126.88;104810;1285;138017;-73
2022/10/12 10:53:45;;;;;;;7.50;3.30;;;;;;;23.18;35.15;101122.20;104171;1299;107709;-75
2022/10/12 10:56:19;;;;;;;10.40;3.70;;;;;;;23.03;34.80;101121.70;103189;1301;137796;-73
2022/10/12 10:58:51;;;;;;;10.50;3.70;;;;;;;22.80;35.20;101122.56;103358;1294;97845;-73
2022/10/12 11:01:28;;;;;;;11.00;3.90;;;;;;;22.80;35.82;101119.41;103320;1300;97711;-73
2022/10/12 11:04:02;;;;;;;8.40;3.30;;;;;;;22.75;35.60;101119.70;102895;1293;578932;-74
2022/10/12 11:06:39;;;;;;;10.80;3.50;;;;;;;22.54;34.95;101117.64;103300;1287;108342;-75
2022/10/12 11:09:14;;;;;;;10.90;3.70;;;;;;;22.25;35.15;101112.84;103165;1291;140027;-74
2022/10/12 11:11:45;;;;;;;7.60;3.10;;;;;;;21.83;35.30;101115.82;103345;1293;97850;-74
2022/10/12 11:14:17;;;;;;;11.40;3.70;;;;;;;21.38;35.34;101119.82;103214;1294;138240;-74
2022/10/12 11:16:52;;;;;;;9.00;3.40;;;;;;;21.06;35.94;101118.02;103315;1300;111647;-74
2022/10/12 11:19:29;;;;;;;8.30;3.40;;;;;;;20.85;36.36;101116.48;103310;1298;110028;-74
2022/10/12 11:22:03;;;;;;;10.90;3.30;;;;;;;20.77;36.76;101115.92;103222;1291;108315;-74
2022/10/12 11:24:39;;;;;;;8.40;3.60;;;;;;;20.68;37.09;101113.65;103139;1294;97832;-74
2022/10/12 11:27:13;;;;;;;9.80;3.80;;;;;;;20.48;37.60;101111.69;103998;1293;137837;-74